LFRT

Saint-Brieuc-Armor Airport

Airport
ICAO code
LFRT
IATA Code
SBK
Summary
ICAO Region
EUR
ICAO Territory
Location

, Bretagne

Serving
St.-brieuc Armor
Elevation
453 ft
Coordinates
48° 32' 16" N , 2° 51' 16" W
Metar
Observation
LFRT 021530Z AUTO 29002KT 9999 OVC022 06/03 Q1020
Station
Saint-Brieuc
Date/Time
2022-12-02 15:30:00
Wind direction
290°
Wind speed
02 kts
Lowest cloud amount
overcast
Temperature
6°C
Dew point
3°C
Humidity
81%
QNH
1020 hPa
Weather condition
n/a

Runways

Designator Length Width Surface Rops
6/24 2200 45 ASP No/No

Airport map

Aerial View

SKYbrary Partners:

Safety knowledge contributed by: